Time;durP1;ratioP1;P1;durP2;ratioP2;P2;SDS_P1;SDS_P2;PMS_P1;PMS_P2;Temp;Humidity;BMP_temperature;BMP_pressure;BME280_temperature;BME280_humidity;BME280_pressure;Samples;Min_cycle;Max_cycle;Signal;HPM_P1;HPM_P2
2022/04/23 00:01:29;;;;;;;;;25.00;22.25;;;;;17.54;42.71;99482.06;5060521;28;45496;-63
2022/04/23 00:03:55;;;;;;;;;19.50;18.75;;;;;17.54;43.13;99480.22;5060320;28;45561;-63
2022/04/23 00:06:20;;;;;;;;;22.50;20.50;;;;;17.52;43.10;99471.38;5059764;28;45949;-63
2022/04/23 00:08:45;;;;;;;;;22.75;21.75;;;;;17.54;42.78;99482.94;5058956;28;45294;-63
2022/04/23 00:11:11;;;;;;;;;21.75;21.75;;;;;17.51;43.17;99476.94;5060093;28;45172;-63
2022/04/23 00:13:38;;;;;;;;;21.75;20.50;;;;;17.49;43.49;99470.78;5058527;28;45314;-63
2022/04/23 00:16:05;;;;;;;;;17.50;16.25;;;;;17.51;42.94;99483.19;5059771;28;46293;-63
2022/04/23 00:18:30;;;;;;;;;19.00;18.25;;;;;17.47;43.07;99473.59;5057736;28;45884;-63
2022/04/23 00:20:56;;;;;;;;;20.25;18.25;;;;;17.43;42.77;99472.16;5059177;28;45358;-63
2022/04/23 00:23:21;;;;;;;;;21.75;21.75;;;;;17.43;43.34;99465.91;5059466;28;45462;-63
2022/04/23 00:25:50;;;;;;;;;18.75;18.75;;;;;17.41;43.21;99469.56;5075300;28;47141;-63
2022/04/23 00:28:17;;;;;;;;;19.75;18.25;;;;;17.37;43.46;99457.34;5059809;28;45248;-63
2022/04/23 00:30:44;;;;;;;;;17.25;17.00;;;;;17.40;43.13;99465.16;5060095;28;45290;-63
2022/04/23 00:33:10;;;;;;;;;17.50;17.50;;;;;17.37;43.29;99460.03;5059845;28;45370;-63
2022/04/23 00:35:36;;;;;;;;;19.75;19.75;;;;;17.35;43.21;99456.56;5059510;28;45441;-63
2022/04/23 00:38:02;;;;;;;;;19.25;18.00;;;;;17.34;43.70;99451.31;5092105;27;45876;-63
2022/04/23 00:40:28;;;;;;;;;20.00;19.25;;;;;17.33;43.41;99449.59;5060057;28;45372;-63
2022/04/23 00:42:56;;;;;;;;;23.25;22.00;;;;;17.31;43.41;99444.34;5059117;28;45323;-63
2022/04/23 00:45:26;;;;;;;;;20.75;20.75;;;;;17.27;43.44;99445.56;5057057;28;46088;-63
2022/04/23 00:47:52;;;;;;;;;20.00;18.75;;;;;17.22;43.41;99434.28;5059190;28;45395;-63
2022/04/23 00:50:21;;;;;;;;;22.50;21.50;;;;;17.15;43.04;99431.22;5059965;28;45338;-63
2022/04/23 00:52:52;;;;;;;;;22.00;19.50;;;;;17.09;43.50;99433.56;5059237;28;45272;-63
2022/04/23 00:55:18;;;;;;;;;21.50;21.00;;;;;17.07;43.54;99430.13;5059807;28;46258;-63
2022/04/23 00:57:44;;;;;;;;;22.00;19.00;;;;;17.02;43.63;99423.28;5059638;28;45353;-63
2022/04/23 01:00:09;;;;;;;;;21.00;19.75;;;;;17.01;43.70;99420.72;5059738;28;45406;-63
2022/04/23 01:02:38;;;;;;;;;16.75;16.75;;;;;17.02;43.66;99422.41;5059586;28;45307;-63
2022/04/23 01:05:08;;;;;;;;;19.75;16.75;;;;;16.99;43.68;99409.16;5059475;28;45994;-63
2022/04/23 01:07:38;;;;;;;;;22.00;21.00;;;;;16.98;43.52;99408.31;5058433;28;45621;-63
2022/04/23 01:10:05;;;;;;;;;24.25;22.50;;;;;16.99;43.75;99411.88;5059566;28;45225;-63
2022/04/23 01:12:31;;;;;;;;;25.25;23.50;;;;;16.95;43.55;99405.03;5059435;28;45360;-63
2022/04/23 01:15:08;;;;;;;;;20.50;19.50;;;;;16.90;43.80;99404.53;5059178;28;45303;-63
2022/04/23 01:17:35;;;;;;;;;20.50;19.75;;;;;16.87;43.93;99407.47;5074880;28;45259;-63
2022/04/23 01:20:08;;;;;;;;;25.00;23.25;;;;;16.87;44.12;99408.31;5074970;28;45333;-63
2022/04/23 01:22:36;;;;;;;;;23.00;22.75;;;;;16.85;43.69;99412.97;5058929;28;45508;-63
2022/04/23 01:25:06;;;;;;;;;18.50;18.50;;;;;16.76;43.77;99390.28;5054376;28;48229;-63
2022/04/23 01:27:34;;;;;;;;;21.50;20.75;;;;;16.79;43.81;99398.13;5061631;28;45414;-63
2022/04/23 01:30:04;;;;;;;;;22.25;20.50;;;;;16.78;44.24;99400.94;5059308;28;45358;-63
2022/04/23 01:32:29;;;;;;;;;19.75;19.25;;;;;16.85;44.11;99404.91;5059364;28;45177;-63
2022/04/23 01:34:54;;;;;;;;;19.25;18.00;;;;;16.78;44.30;99401.81;5061877;28;46262;-63
2022/04/23 01:37:20;;;;;;;;;21.00;20.00;;;;;16.78;44.09;99398.25;5077795;28;45412;-63
2022/04/23 01:39:47;;;;;;;;;23.50;23.00;;;;;16.82;44.34;99408.69;5060295;28;45746;-63
2022/04/23 01:42:13;;;;;;;;;23.50;22.00;;;;;16.81;44.27;99398.88;5052182;28;45314;-63
2022/04/23 01:44:39;;;;;;;;;22.00;21.00;;;;;16.83;44.50;99396.91;5062113;28;45591;-63
2022/04/23 01:47:05;;;;;;;;;25.00;23.00;;;;;16.81;44.39;99396.16;5062514;28;45552;-63
2022/04/23 01:49:30;;;;;;;;;19.25;19.25;;;;;16.83;44.45;99396.06;5050247;28;45407;-63
2022/04/23 01:51:56;;;;;;;;;19.75;19.50;;;;;16.81;44.61;99387.25;5062168;28;45271;-63
2022/04/23 01:54:22;;;;;;;;;24.50;23.00;;;;;16.81;44.41;99392.63;5062340;28;46080;-63
2022/04/23 01:56:47;;;;;;;;;20.50;20.50;;;;;16.74;44.42;99386.88;5062022;28;45294;-63
2022/04/23 01:59:13;;;;;;;;;20.50;19.00;;;;;16.75;44.43;99380.47;5077981;28;45313;-63
2022/04/23 02:01:38;;;;;;;;;20.75;20.25;;;;;16.77;44.45;99383.94;5062291;28;45525;-63
2022/04/23 02:04:06;;;;;;;;;20.25;17.50;;;;;16.76;44.61;99384.06;5061997;28;46047;-63
2022/04/23 02:06:33;;;;;;;;;22.75;21.75;;;;;16.77;44.47;99388.44;5077639;28;45463;-63
2022/04/23 02:09:02;;;;;;;;;24.50;21.00;;;;;16.71;44.29;99379.03;5061989;28;45408;-63
2022/04/23 02:11:28;;;;;;;;;22.50;20.25;;;;;16.72;44.51;99385.25;5061257;28;45419;-63
2022/04/23 02:13:53;;;;;;;;;26.25;24.25;;;;;16.64;44.09;99377.81;5061911;28;46463;-63
2022/04/23 02:16:19;;;;;;;;;24.50;22.25;;;;;16.62;44.61;99363.59;5061629;28;45386;-63
2022/04/23 02:18:45;;;;;;;;;21.00;18.75;;;;;16.61;44.57;99368.13;5062027;28;45277;-63
2022/04/23 02:21:10;;;;;;;;;21.00;19.75;;;;;16.64;44.54;99369.72;5061865;28;45517;-62
2022/04/23 02:23:36;;;;;;;;;22.50;21.00;;;;;16.60;44.63;99370.94;5059955;28;47488;-63
2022/04/23 02:26:01;;;;;;;;;20.75;20.75;;;;;16.54;44.54;99366.03;5061946;28;45349;-63
2022/04/23 02:28:26;;;;;;;;;24.00;22.75;;;;;16.51;44.79;99375.22;5061925;28;45643;-63
2022/04/23 02:30:52;;;;;;;;;22.00;22.00;;;;;16.52;44.61;99379.59;5061942;28;45374;-63
2022/04/23 02:33:17;;;;;;;;;23.50;19.75;;;;;16.48;44.89;99367.38;5061599;28;45502;-63
2022/04/23 02:35:44;;;;;;;;;22.50;20.50;;;;;16.47;44.83;99371.91;5061400;28;45387;-63
2022/04/23 02:38:09;;;;;;;;;22.25;21.75;;;;;16.42;44.80;99366.03;5060602;28;45255;-63
2022/04/23 02:40:35;;;;;;;;;19.75;19.75;;;;;16.42;45.03;99359.78;5058498;28;45543;-63
2022/04/23 02:43:03;;;;;;;;;19.75;19.75;;;;;16.47;44.89;99371.03;5061402;28;46101;-63
2022/04/23 02:45:28;;;;;;;;;24.50;22.75;;;;;16.44;44.77;99357.84;5060890;28;45238;-63
2022/04/23 02:47:56;;;;;;;;;18.75;17.75;;;;;16.41;44.83;99361.63;5061368;28;45358;-63
2022/04/23 02:50:27;;;;;;;;;21.75;21.75;;;;;16.40;44.99;99354.50;5059776;28;45501;-63
2022/04/23 02:52:55;;;;;;;;;21.25;20.50;;;;;16.36;44.89;99347.66;5059827;28;45370;-63
2022/04/23 02:55:21;;;;;;;;;19.25;18.50;;;;;16.23;44.75;99338.81;5059783;28;45602;-63
2022/04/23 02:57:46;;;;;;;;;24.50;23.25;;;;;16.24;45.15;99349.47;5060349;28;45438;-63
2022/04/23 03:00:12;;;;;;;;;22.00;20.00;;;;;16.20;45.08;99347.13;5059560;28;45688;-62
2022/04/23 03:02:39;;;;;;;;;24.00;22.50;;;;;16.17;45.07;99342.88;5059917;28;45360;-63
2022/04/23 03:05:11;;;;;;;;;24.25;22.00;;;;;16.16;45.06;99343.84;5052037;28;45684;-63
2022/04/23 03:07:38;;;;;;;;;21.00;19.50;;;;;16.13;45.16;99343.22;5054466;28;45468;-63
2022/04/23 03:10:09;;;;;;;;;21.25;20.25;;;;;16.05;45.17;99330.34;5062700;27;45395;-62
2022/04/23 03:12:38;;;;;;;;;26.00;24.50;;;;;16.10;45.35;99345.19;5060721;28;46416;-63
2022/04/23 03:15:05;;;;;;;;;21.00;20.25;;;;;16.05;45.29;99341.97;5056338;28;45406;-63
2022/04/23 03:17:31;;;;;;;;;24.75;20.50;;;;;16.04;45.45;99337.56;5058927;28;45612;-63
2022/04/23 03:19:57;;;;;;;;;26.75;24.75;;;;;16.04;45.19;99334.88;5060331;28;45540;-63
2022/04/23 03:22:22;;;;;;;;;19.75;19.75;;;;;16.00;45.56;99335.22;5059870;28;46207;-63
2022/04/23 03:24:48;;;;;;;;;22.50;21.00;;;;;15.99;45.59;99339.75;5058895;28;45314;-63
2022/04/23 03:27:13;;;;;;;;;20.50;18.25;;;;;15.92;45.56;99333.13;5056541;28;45706;-62
2022/04/23 03:29:39;;;;;;;;;18.50;18.50;;;;;15.87;45.89;99327.22;5059883;28;45480;-63
2022/04/23 03:32:05;;;;;;;;;21.00;19.00;;;;;15.83;45.69;99323.06;5060529;28;46058;-63
2022/04/23 03:34:31;;;;;;;;;23.50;23.50;;;;;15.84;45.66;99325.66;5060628;28;45503;-62
2022/04/23 03:36:56;;;;;;;;;24.00;24.00;;;;;15.78;45.75;99318.03;5060528;28;45536;-63
2022/04/23 03:39:22;;;;;;;;;20.00;20.00;;;;;15.74;45.91;99313.84;5059899;28;45569;-62
2022/04/23 03:41:47;;;;;;;;;18.50;18.50;;;;;15.76;45.76;99322.69;5065443;28;46126;-62
2022/04/23 03:44:12;;;;;;;;;23.75;21.75;;;;;15.71;45.96;99319.47;5059644;28;45391;-63
2022/04/23 03:46:38;;;;;;;;;21.25;21.25;;;;;15.67;45.89;99317.97;5056872;28;45342;-63
2022/04/23 03:49:03;;;;;;;;;23.75;21.75;;;;;15.61;46.12;99318.47;5059830;28;45300;-62
2022/04/23 03:51:28;;;;;;;;;18.25;17.50;;;;;15.63;46.26;99319.19;5060072;28;45270;-63
2022/04/23 03:53:54;;;;;;;;;22.00;21.50;;;;;15.60;46.17;99306.81;5060353;28;45248;-63
2022/04/23 03:56:19;;;;;;;;;20.75;20.75;;;;;15.61;46.04;99313.09;5054524;28;45568;-63
2022/04/23 03:58:45;;;;;;;;;26.75;22.00;;;;;15.57;46.08;99316.00;5052803;28;45489;-62
2022/04/23 04:01:10;;;;;;;;;23.00;18.50;;;;;15.58;46.03;99306.09;5057691;28;45346;-63
2022/04/23 04:03:35;;;;;;;;;23.75;22.75;;;;;15.50;46.26;99295.06;5060310;28;45300;-63
2022/04/23 04:06:01;;;;;;;;;20.00;20.00;;;;;15.50;46.35;99304.00;5059647;28;45235;-62
2022/04/23 04:08:27;;;;;;;;;23.00;21.25;;;;;15.49;46.57;99307.66;5067648;27;45672;-63
2022/04/23 04:10:52;;;;;;;;;20.75;20.25;;;;;15.42;46.29;99298.34;5055149;28;45255;-63
2022/04/23 04:13:18;;;;;;;;;20.25;19.50;;;;;15.41;46.59;99301.16;5058875;28;45395;-63
2022/04/23 04:15:45;;;;;;;;;20.75;19.50;;;;;15.36;46.76;99299.63;5060170;28;45421;-63
2022/04/23 04:18:11;;;;;;;;;27.50;25.75;;;;;15.32;46.62;99298.16;5057021;28;45538;-62
2022/04/23 04:20:39;;;;;;;;;23.50;21.00;;;;;15.30;46.72;99293.88;5058281;28;48474;-62
2022/04/23 04:23:05;;;;;;;;;26.75;25.75;;;;;15.30;46.75;99296.56;5068430;28;45426;-62
2022/04/23 04:25:30;;;;;;;;;25.00;23.75;;;;;15.21;47.02;99275.75;5063926;27;45402;-63
2022/04/23 04:27:56;;;;;;;;;25.75;24.75;;;;;15.24;46.85;99284.44;5060772;28;45335;-62
2022/04/23 04:30:21;;;;;;;;;22.50;18.25;;;;;15.16;46.84;99276.94;5059822;27;46313;-63
2022/04/23 04:32:46;;;;;;;;;28.75;24.75;;;;;15.28;46.74;99293.97;5057240;28;45410;-63
2022/04/23 04:35:12;;;;;;;;;23.00;23.00;;;;;15.29;47.12;99298.41;5059899;28;45515;-63
2022/04/23 04:37:37;;;;;;;;;25.75;23.00;;;;;15.31;46.87;99284.84;5053906;27;45575;-63
2022/04/23 04:40:06;;;;;;;;;26.50;24.75;;;;;15.26;47.15;99292.41;5058623;28;45415;-63
2022/04/23 04:42:32;;;;;;;;;24.00;21.25;;;;;15.25;47.07;99285.28;5059700;28;45704;-62
2022/04/23 04:44:57;;;;;;;;;24.00;24.00;;;;;15.26;46.78;99282.50;5058488;28;45386;-63
2022/04/23 04:47:23;;;;;;;;;20.75;20.75;;;;;15.27;46.96;99289.59;5061741;28;45478;-63
2022/04/23 04:49:48;;;;;;;;;18.75;18.00;;;;;15.22;46.86;99289.09;5058333;28;45384;-62
2022/04/23 04:52:13;;;;;;;;;16.75;15.25;;;;;15.11;47.14;99278.28;5058421;28;45600;-62
2022/04/23 04:54:39;;;;;;;;;25.50;21.50;;;;;15.07;47.39;99282.16;5058495;28;45514;-62
2022/04/23 04:57:04;;;;;;;;;21.75;21.75;;;;;15.07;47.31;99287.50;5057806;28;45342;-62
2022/04/23 04:59:34;;;;;;;;;19.75;18.25;;;;;15.07;47.54;99287.50;5058632;28;45409;-63
2022/04/23 05:02:00;;;;;;;;;23.50;21.75;;;;;15.02;47.32;99290.56;5049150;28;45519;-63
2022/04/23 05:04:26;;;;;;;;;24.25;23.25;;;;;14.97;47.65;99287.38;5058220;28;45369;-63
2022/04/23 05:06:51;;;;;;;;;25.50;24.25;;;;;14.91;47.75;99282.44;5059026;28;45288;-63
2022/04/23 05:09:17;;;;;;;;;24.25;20.25;;;;;14.99;47.70;99290.78;5061666;28;47454;-63
2022/04/23 05:11:42;;;;;;;;;25.00;23.75;;;;;14.93;47.47;99281.34;5078760;28;45286;-63
2022/04/23 05:14:08;;;;;;;;;25.50;25.00;;;;;14.90;47.32;99286.09;5063259;28;45326;-63
2022/04/23 05:16:33;;;;;;;;;23.00;22.25;;;;;14.85;47.93;99285.56;5078386;28;45562;-63
2022/04/23 05:18:59;;;;;;;;;20.50;18.25;;;;;14.84;48.03;99284.72;5062858;28;46390;-63
2022/04/23 05:21:24;;;;;;;;;31.75;26.00;;;;;14.74;48.05;99279.16;5062480;28;45427;-63
2022/04/23 05:23:50;;;;;;;;;26.25;25.75;;;;;14.71;47.87;99282.06;5064816;28;45357;-63
2022/04/23 05:26:15;;;;;;;;;27.25;24.50;;;;;14.64;48.15;99283.47;5056400;28;45338;-63
2022/04/23 05:28:41;;;;;;;;;25.25;21.50;;;;;14.59;48.23;99277.59;5062697;28;45346;-63
2022/04/23 05:31:07;;;;;;;;;24.25;23.25;;;;;14.62;48.52;99293.50;5062764;28;45255;-63
2022/04/23 05:33:32;;;;;;;;;26.50;22.75;;;;;14.63;48.56;99284.44;5062760;28;46684;-63
2022/04/23 05:35:58;;;;;;;;;20.50;19.75;;;;;14.64;48.39;99287.00;5049887;28;45441;-63
2022/04/23 05:38:23;;;;;;;;;24.50;23.25;;;;;14.59;48.42;99266.84;5061930;28;46197;-62
2022/04/23 05:40:49;;;;;;;;;24.25;23.25;;;;;14.68;48.50;99271.53;5062563;28;45331;-63
2022/04/23 05:43:15;;;;;;;;;25.50;25.50;;;;;14.68;48.36;99270.69;5061426;28;45393;-63
2022/04/23 05:45:41;;;;;;;;;25.00;24.50;;;;;14.68;48.39;99270.69;5062394;28;45620;-63
2022/04/23 05:48:07;;;;;;;;;22.25;22.25;;;;;14.64;48.51;99264.69;5062561;28;45376;-63
2022/04/23 05:50:32;;;;;;;;;26.00;26.00;;;;;14.62;48.60;99253.19;5062240;28;45360;-63
2022/04/23 05:52:57;;;;;;;;;27.50;26.00;;;;;14.68;48.54;99268.84;5062346;28;45354;-63
2022/04/23 05:55:23;;;;;;;;;22.25;20.75;;;;;14.66;48.71;99269.94;5061374;28;45623;-63
2022/04/23 05:57:49;;;;;;;;;25.25;24.50;;;;;14.67;48.84;99267.16;5064019;28;45440;-63
2022/04/23 06:00:14;;;;;;;;;24.75;23.75;;;;;14.70;48.72;99276.78;5062075;28;45350;-63
2022/04/23 06:02:40;;;;;;;;;25.00;21.75;;;;;14.72;48.65;99281.09;5061835;28;45473;-63
2022/04/23 06:05:06;;;;;;;;;24.00;22.50;;;;;14.78;48.63;99290.53;5061873;28;45313;-63
2022/04/23 06:07:33;;;;;;;;;27.75;26.50;;;;;14.82;48.87;99290.19;5061700;28;46463;-62
2022/04/23 06:09:58;;;;;;;;;25.50;24.00;;;;;14.86;48.34;99289.97;5061857;28;45635;-63
2022/04/23 06:12:24;;;;;;;;;24.00;23.50;;;;;14.87;48.32;99289.88;5062321;28;45322;-62
2022/04/23 06:14:50;;;;;;;;;23.50;20.25;;;;;14.87;48.42;99289.88;5061630;28;45236;-63
2022/04/23 06:17:15;;;;;;;;;28.75;28.75;;;;;14.93;48.44;99310.88;5061589;28;45469;-63
2022/04/23 06:19:42;;;;;;;;;25.50;25.50;;;;;14.94;48.42;99303.72;5076275;28;45353;-63
2022/04/23 06:22:08;;;;;;;;;21.75;21.25;;;;;14.92;48.61;99297.59;5061369;28;45522;-63
2022/04/23 06:24:34;;;;;;;;;29.75;28.50;;;;;14.86;48.69;99306.94;5060913;28;45385;-62
2022/04/23 06:27:01;;;;;;;;;26.75;25.75;;;;;14.85;48.93;99325.88;5060734;28;46030;-63
2022/04/23 06:29:26;;;;;;;;;26.75;23.75;;;;;14.87;48.56;99303.31;5056677;28;45698;-63
2022/04/23 06:31:52;;;;;;;;;28.25;26.50;;;;;14.93;48.60;99301.97;5061297;28;45559;-63
2022/04/23 06:34:17;;;;;;;;;24.00;24.00;;;;;14.91;48.73;99294.03;5061326;28;45208;-62
2022/04/23 06:36:43;;;;;;;;;24.75;24.25;;;;;14.99;48.68;99302.38;5076958;28;47407;-63
2022/04/23 06:39:09;;;;;;;;;32.25;30.25;;;;;14.95;48.48;99306.28;5061532;28;45322;-63
2022/04/23 06:41:34;;;;;;;;;28.50;24.00;;;;;14.90;48.65;99305.78;5061940;28;45328;-63
2022/04/23 06:44:00;;;;;;;;;24.50;23.75;;;;;14.83;48.59;99299.09;5061203;28;45342;-63
2022/04/23 06:46:26;;;;;;;;;24.75;24.75;;;;;14.78;49.33;99293.22;5061614;28;46275;-63
2022/04/23 06:48:51;;;;;;;;;30.50;28.25;;;;;14.74;49.17;99287.22;5060898;28;45326;-63
2022/04/23 06:51:16;;;;;;;;;27.75;27.75;;;;;14.67;49.08;99288.63;5061440;28;45366;-63
2022/04/23 06:53:42;;;;;;;;;23.50;22.25;;;;;14.67;49.46;99304.75;5061024;28;45472;-71
2022/04/23 06:56:08;;;;;;;;;30.00;25.50;;;;;14.66;49.75;99296.81;5059924;28;46085;-65
2022/04/23 06:58:33;;;;;;;;;26.50;24.25;;;;;14.64;49.59;99302.28;5055646;28;45396;-65
2022/04/23 07:00:58;;;;;;;;;28.25;25.00;;;;;14.63;49.33;99287.13;5051534;28;45355;-65
2022/04/23 07:03:24;;;;;;;;;22.25;22.25;;;;;14.63;49.62;99301.44;5060724;28;45460;-66
2022/04/23 07:05:51;;;;;;;;;27.00;25.00;;;;;14.60;49.23;99285.53;5060011;28;45394;-65
2022/04/23 07:08:17;;;;;;;;;22.75;22.00;;;;;14.61;49.56;99297.13;5054714;28;45230;-65
2022/04/23 07:10:44;;;;;;;;;27.25;25.75;;;;;14.65;50.05;99293.28;5053170;28;45435;-65
2022/04/23 07:13:11;;;;;;;;;27.75;27.25;;;;;14.68;49.92;99300.22;5056432;28;45370;-65
2022/04/23 07:15:37;;;;;;;;;31.25;27.00;;;;;14.69;49.95;99304.66;5059566;28;47512;-65
2022/04/23 07:18:03;;;;;;;;;29.25;26.50;;;;;14.63;49.52;99288.00;5060667;28;45398;-65
2022/04/23 07:20:28;;;;;;;;;24.75;24.00;;;;;14.69;49.65;99294.75;5058035;28;45440;-65
2022/04/23 07:25:38;;;;;;;;;30.75;27.50;;;;;14.66;50.17;99286.91;5056386;28;45407;-65
2022/04/23 07:28:04;;;;;;;;;31.25;29.25;;;;;14.70;50.28;99285.72;5047798;28;45295;-66
2022/04/23 07:30:30;;;;;;;;;32.75;26.25;;;;;14.69;49.78;99293.91;5044865;28;45349;-65
2022/04/23 07:32:57;;;;;;;;;28.00;26.50;;;;;14.64;50.16;99291.53;5045672;28;45435;-66
2022/04/23 07:38:21;;;;;;;;;21.75;21.75;;;;;14.63;50.40;99295.19;5060272;28;45306;-66
2022/04/23 07:40:48;;;;;;;;;28.50;27.00;;;;;14.66;50.49;99299.50;5057899;28;45321;-66
2022/04/23 07:43:14;;;;;;;;;28.00;27.50;;;;;14.70;50.18;99290.22;5054627;28;45362;-66
2022/04/23 07:45:42;;;;;;;;;24.25;24.00;;;;;14.68;50.20;99284.97;5050588;28;47135;-65
2022/04/23 07:48:09;;;;;;;;;25.00;23.50;;;;;14.67;50.56;99288.63;5060441;28;45256;-65
2022/04/23 07:50:37;;;;;;;;;27.00;26.25;;;;;14.71;50.45;99283.91;5046656;28;45705;-65
2022/04/23 07:53:03;;;;;;;;;31.00;30.50;;;;;14.76;50.49;99282.56;5052915;28;45519;-65
2022/04/23 07:55:37;;;;;;;;;27.75;27.50;;;;;14.78;50.56;99274.41;5060184;28;45401;-66
2022/04/23 07:58:04;;;;;;;;;27.50;26.75;;;;;14.78;50.55;99277.09;5058894;28;45507;-65
2022/04/23 08:00:36;;;;;;;;;28.75;27.00;;;;;14.78;50.51;99269.91;5059185;28;45402;-65
2022/04/23 08:03:03;;;;;;;;;28.25;26.00;;;;;14.84;50.76;99273.13;5047400;28;45394;-65
2022/04/23 08:05:29;;;;;;;;;34.25;31.25;;;;;14.85;50.56;99270.31;5056139;28;45434;-65
2022/04/23 08:07:54;;;;;;;;;29.25;27.25;;;;;14.90;50.86;99276.22;5058885;28;45421;-65
2022/04/23 08:10:20;;;;;;;;;32.00;29.50;;;;;14.91;50.89;99269.84;5058107;28;45401;-65
2022/04/23 08:12:46;;;;;;;;;27.25;26.25;;;;;14.92;50.71;99262.66;5056342;28;45377;-65
2022/04/23 08:15:12;;;;;;;;;27.50;23.25;;;;;15.02;50.86;99274.44;5056595;28;45252;-65
2022/04/23 08:17:38;;;;;;;;;28.75;27.50;;;;;15.05;50.19;99274.22;5056508;28;45375;-65
2022/04/23 08:20:04;;;;;;;;;32.50;31.00;;;;;15.03;50.33;99264.53;5059032;28;45287;-66
2022/04/23 08:22:29;;;;;;;;;28.50;28.50;;;;;15.06;50.52;99267.84;5050018;28;45677;-65
2022/04/23 08:24:56;;;;;;;;;29.00;27.50;;;;;15.10;50.62;99265.78;5045871;28;46107;-65
2022/04/23 08:27:21;;;;;;;;;28.75;26.50;;;;;15.11;50.85;99259.47;5075920;27;45465;-66
2022/04/23 08:32:30;;;;;;;;;31.50;27.25;;;;;15.22;50.57;99264.00;5049552;28;45834;-65
2022/04/23 08:34:55;;;;;;;;;34.25;29.00;;;;;15.22;50.71;99259.53;5046083;28;45493;-65
2022/04/23 08:37:22;;;;;;;;;21.50;21.50;;;;;15.30;50.65;99262.50;5045488;28;45692;-65
2022/04/23 08:39:48;;;;;;;;;33.25;31.00;;;;;15.26;50.85;99250.25;5048672;28;45642;-65
2022/04/23 08:42:16;;;;;;;;;33.50;30.25;;;;;15.32;50.68;99259.69;5055583;28;45697;-65
2022/04/23 08:44:42;;;;;;;;;31.25;30.75;;;;;15.30;50.59;99259.81;5060281;28;45975;-66
2022/04/23 08:47:09;;;;;;;;;29.25;27.75;;;;;15.35;51.00;99259.44;5056604;28;45478;-66
2022/04/23 08:49:39;;;;;;;;;31.50;28.25;;;;;15.40;50.81;99256.41;5058001;28;45667;-65
2022/04/23 08:52:12;;;;;;;;;28.75;27.25;;;;;15.43;51.12;99256.16;5055846;28;45416;-62
2022/04/23 08:54:38;;;;;;;;;32.25;31.00;;;;;15.46;50.88;99259.47;5057726;28;46550;-62
2022/04/23 08:57:04;;;;;;;;;32.50;29.75;;;;;15.46;50.81;99259.47;5057812;28;45513;-63
2022/04/23 08:59:29;;;;;;;;;35.25;33.00;;;;;15.47;50.75;99263.88;5056147;28;45512;-63
2022/04/23 09:01:55;;;;;;;;;35.00;32.50;;;;;15.50;50.90;99250.22;5073937;28;45480;-63
2022/04/23 09:04:21;;;;;;;;;33.25;30.75;;;;;15.52;50.88;99263.53;5059044;28;46120;-63
2022/04/23 09:06:47;;;;;;;;;24.75;24.25;;;;;15.47;51.16;99249.56;5060874;28;45764;-63
2022/04/23 09:09:19;;;;;;;;;33.50;30.50;;;;;15.55;51.10;99271.34;5057378;28;45502;-63
2022/04/23 09:11:50;;;;;;;;;35.75;30.75;;;;;15.58;51.32;99268.44;5055657;28;45805;-62
2022/04/23 09:14:28;;;;;;;;;31.00;29.50;;;;;15.62;51.47;99260.97;5051739;28;45750;-61
2022/04/23 09:25:15;;;;;;;;;33.75;29.25;;;;;15.77;51.24;99262.53;5060788;28;45524;-63
2022/04/23 09:27:43;;;;;;;;;31.75;29.00;;;;;15.83;51.28;99258.50;5052463;28;45733;-63
2022/04/23 09:30:11;;;;;;;;;34.25;29.00;;;;;15.82;50.93;99260.34;5057873;28;45549;-64
2022/04/23 09:32:37;;;;;;;;;32.00;30.00;;;;;15.86;51.05;99256.44;5053424;28;45663;-64
2022/04/23 09:35:21;;;;;;;;;39.50;31.00;;;;;15.89;51.26;99245.44;5060555;28;46736;-63
2022/04/23 09:40:30;;;;;;;;;35.50;30.00;;;;;15.99;51.62;99248.25;5060458;28;45549;-64
2022/04/23 09:43:03;;;;;;;;;30.25;30.00;;;;;16.03;51.45;99247.03;5060922;28;45599;-63
2022/04/23 09:45:30;;;;;;;;;32.75;31.00;;;;;16.09;51.29;99245.72;5060512;28;45836;-63
2022/04/23 09:48:12;;;;;;;;;38.00;31.75;;;;;16.19;51.12;99248.50;5060553;28;45730;-66
2022/04/23 09:50:38;;;;;;;;;25.50;24.00;;;;;16.22;51.28;99249.13;5062081;28;45548;-66
2022/04/23 09:53:10;;;;;;;;;30.75;26.75;;;;;16.30;51.17;99251.19;5060407;28;45788;-66
2022/04/23 09:55:36;;;;;;;;;34.50;30.75;;;;;16.34;51.54;99241.91;5051935;28;45506;-66
2022/04/23 09:58:06;;;;;;;;;31.75;29.00;;;;;16.44;51.08;99247.41;5055929;28;45416;-63
2022/04/23 10:00:35;;;;;;;;;31.50;28.25;;;;;16.47;51.25;99255.22;5057048;28;45562;-65
2022/04/23 10:03:03;;;;;;;;;29.25;27.75;;;;;16.55;50.82;99252.78;5057605;28;45800;-64
2022/04/23 10:05:28;;;;;;;;;32.75;31.75;;;;;16.60;50.77;99253.25;5057272;28;46267;-63
2022/04/23 10:07:56;;;;;;;;;33.50;31.50;;;;;16.63;50.78;99247.63;5056666;28;45457;-64
2022/04/23 10:10:26;;;;;;;;;27.00;25.75;;;;;16.69;51.26;99251.66;5057117;28;45805;-66
2022/04/23 10:12:54;;;;;;;;;25.00;25.00;;;;;16.75;51.28;99253.00;5056186;28;45581;-66
2022/04/23 10:15:19;;;;;;;;;28.75;27.50;;;;;16.80;50.54;99240.84;5056855;28;45785;-66
2022/04/23 10:17:47;;;;;;;;;28.50;27.50;;;;;16.88;50.75;99236.72;5057060;28;45581;-65
2022/04/23 10:20:13;;;;;;;;;28.00;27.75;;;;;16.93;50.15;99246.13;5056750;28;45745;-65
2022/04/23 10:22:48;;;;;;;;;28.25;28.25;;;;;17.00;50.42;99241.94;5051847;28;45462;-64
2022/04/23 10:25:27;;;;;;;;;28.25;26.75;;;;;16.95;50.47;99221.75;5057106;28;45827;-65
2022/04/23 10:27:55;;;;;;;;;27.50;27.25;;;;;17.06;50.36;99229.78;5050179;28;45830;-64
2022/04/23 10:30:21;;;;;;;;;30.25;28.50;;;;;17.15;50.46;99236.25;5052326;28;45517;-65
2022/04/23 10:32:47;;;;;;;;;31.75;28.75;;;;;17.22;50.36;99235.63;5057029;28;45590;-65
2022/04/23 10:35:18;;;;;;;;;27.00;23.25;;;;;17.29;50.21;99227.88;5052284;28;45494;-65
2022/04/23 10:37:51;;;;;;;;;21.25;20.50;;;;;17.38;50.44;99227.06;5056417;28;45807;-65
2022/04/23 10:40:20;;;;;;;;;23.75;23.50;;;;;17.43;50.00;99217.75;5057035;28;45567;-64
2022/04/23 10:43:04;;;;;;;;;22.75;22.25;;;;;17.56;50.32;99213.00;5054320;28;45744;-65
2022/04/23 10:45:33;;;;;;;;;24.75;24.75;;;;;17.62;50.16;99212.47;5047017;28;47307;-63
2022/04/23 10:48:24;;;;;;;;;23.50;21.75;;;;;17.69;50.05;99220.88;5055584;28;45935;-63
2022/04/23 10:51:02;;;;;;;;;23.25;22.25;;;;;17.69;50.35;99213.66;5049652;28;45655;-64
2022/04/23 10:53:41;;;;;;;;;26.75;23.50;;;;;17.83;49.91;99225.09;5054590;28;45746;-64
2022/04/23 10:56:09;;;;;;;;;20.00;20.00;;;;;17.89;49.29;99217.38;5054353;28;46240;-64
2022/04/23 10:58:37;;;;;;;;;24.00;21.50;;;;;17.92;48.83;99221.63;5056759;28;45971;-64
2022/04/23 11:01:22;;;;;;;;;20.75;18.75;;;;;17.97;48.91;99213.97;5044702;28;45447;-63
2022/04/23 11:04:08;;;;;;;;;16.50;15.25;;;;;18.05;47.96;99227.66;5056102;28;45457;-64
2022/04/23 11:12:30;;;;;;;;;19.00;19.00;;;;;18.14;47.93;99224.16;5052029;28;45568;-64
2022/04/23 11:14:56;;;;;;;;;19.75;19.00;;;;;18.23;48.39;99224.34;5050662;28;46119;-64
2022/04/23 11:17:44;;;;;;;;;17.50;16.00;;;;;18.26;47.55;99226.75;5056145;28;45689;-64
2022/04/23 11:20:10;;;;;;;;;15.25;13.50;;;;;18.34;47.38;99224.22;5056281;28;45448;-63
2022/04/23 11:22:37;;;;;;;;;11.00;10.00;;;;;18.37;46.99;99217.72;5051299;28;45863;-64
2022/04/23 11:25:02;;;;;;;;;14.25;13.00;;;;;18.41;47.26;99201.09;5056133;28;45520;-65
2022/04/23 11:27:33;;;;;;;;;13.25;13.25;;;;;18.52;46.84;99209.06;5053342;28;46415;-64
2022/04/23 11:29:59;;;;;;;;;12.50;12.50;;;;;18.54;47.05;99195.41;5050684;28;45510;-64
2022/04/23 11:32:28;;;;;;;;;10.00;8.75;;;;;18.70;46.60;99203.84;5054547;28;45589;-63
2022/04/23 11:35:01;;;;;;;;;14.50;12.50;;;;;18.77;46.42;99195.19;5056030;28;45740;-64
2022/04/23 11:37:37;;;;;;;;;12.50;10.75;;;;;18.83;46.13;99194.69;5056120;28;45621;-63
2022/04/23 11:40:11;;;;;;;;;11.50;10.25;;;;;18.87;45.87;99199.63;5052760;28;45534;-65
2022/04/23 11:42:41;;;;;;;;;8.75;8.00;;;;;18.82;45.49;99182.97;5060299;28;45446;-65